createdAt,value
2023-02-23T00:02:23.011Z,8.63
2023-02-23T00:04:51.439Z,8.68
2023-02-23T00:07:21.072Z,8.67
2023-02-23T00:09:51.041Z,8.72
2023-02-23T00:12:20.952Z,8.68
2023-02-23T00:14:50.841Z,8.86
2023-02-23T00:17:19.026Z,8.83
2023-02-23T00:19:49.582Z,8.88
2023-02-23T00:22:18.777Z,8.79
2023-02-23T00:24:48.274Z,8.79
2023-02-23T00:27:18.806Z,8.79
2023-02-23T00:29:49.793Z,8.89
2023-02-23T00:32:21.276Z,8.79
2023-02-23T00:34:50.751Z,8.80
2023-02-23T00:37:19.672Z,8.82
2023-02-23T00:39:48.299Z,8.77
2023-02-23T00:42:16.802Z,8.85
2023-02-23T00:44:47.774Z,8.89
2023-02-23T00:47:16.224Z,8.79
2023-02-23T00:49:46.408Z,8.77
2023-02-23T00:52:15.847Z,8.78
2023-02-23T00:54:44.635Z,8.85
2023-02-23T00:57:12.744Z,8.87
2023-02-23T00:59:41.405Z,8.89
2023-02-23T01:02:09.808Z,8.88
2023-02-23T01:04:38.438Z,8.88
2023-02-23T01:07:08.334Z,8.92
2023-02-23T01:09:36.793Z,8.86
2023-02-23T01:12:07.694Z,8.83
2023-02-23T01:14:37.829Z,8.65
2023-02-23T01:17:06.109Z,8.70
2023-02-23T01:19:34.343Z,8.78
2023-02-23T01:22:02.948Z,8.94
2023-02-23T01:24:32.630Z,8.94
2023-02-23T01:27:00.841Z,8.98
2023-02-23T01:29:29.334Z,9.05
2023-02-23T01:31:57.783Z,9.09
2023-02-23T01:34:26.325Z,8.86
2023-02-23T01:36:54.491Z,8.77
2023-02-23T01:39:23.628Z,8.87
2023-02-23T01:41:54.371Z,8.97
2023-02-23T01:44:59.813Z,9.01
2023-02-23T01:47:28.225Z,9.06
2023-02-23T01:49:56.665Z,8.94
2023-02-23T01:52:24.781Z,8.83
2023-02-23T01:54:57.046Z,8.79
2023-02-23T01:57:27.339Z,8.87
2023-02-23T01:59:56.416Z,8.96
2023-02-23T02:02:34.057Z,8.96
2023-02-23T02:05:05.753Z,9.02
2023-02-23T02:07:36.543Z,9.01
2023-02-23T02:10:33.865Z,8.96
2023-02-23T02:13:06.096Z,8.92
2023-02-23T02:15:40.948Z,8.98
2023-02-23T02:18:23.608Z,8.97
2023-02-23T02:21:26.806Z,8.96
2023-02-23T02:24:31.107Z,9.05
2023-02-23T02:27:18.322Z,9.11
2023-02-23T02:30:29.145Z,9.01
2023-02-23T02:33:32.276Z,9.14
2023-02-23T02:36:35.303Z,9.15
2023-02-23T02:39:17.619Z,9.13
2023-02-23T02:41:53.786Z,9.14
2023-02-23T02:44:31.584Z,9.14
2023-02-23T02:47:08.231Z,9.20
2023-02-23T02:49:46.407Z,9.13
2023-02-23T02:52:20.760Z,9.15
2023-02-23T02:54:54.581Z,9.18
2023-02-23T02:57:27.124Z,9.16
2023-02-23T03:00:13.759Z,9.11
2023-02-23T03:03:00.302Z,9.09
2023-02-23T03:05:49.348Z,9.01
2023-02-23T03:08:40.477Z,9.03
2023-02-23T03:11:29.847Z,9.10
2023-02-23T03:14:28.278Z,9.06
2023-02-23T03:17:21.718Z,9.00
2023-02-23T03:20:13.359Z,9.03
2023-02-23T03:23:08.765Z,8.94
2023-02-23T03:26:07.149Z,9.00
2023-02-23T03:29:03.718Z,9.02
2023-02-23T03:31:58.839Z,9.01
2023-02-23T03:34:49.668Z,9.04
2023-02-23T03:37:42.010Z,9.08
2023-02-23T03:40:35.279Z,9.11
2023-02-23T03:43:24.398Z,9.04
2023-02-23T03:46:15.012Z,9.15
2023-02-23T03:49:04.415Z,9.22
2023-02-23T03:51:55.900Z,9.20
2023-02-23T03:54:49.168Z,9.26
2023-02-23T03:57:41.420Z,9.28
2023-02-23T04:00:33.722Z,9.18
2023-02-23T04:03:24.674Z,9.24
2023-02-23T04:06:13.550Z,9.25
2023-02-23T04:09:00.014Z,9.31
2023-02-23T04:11:50.193Z,9.28
2023-02-23T04:14:22.041Z,9.17
2023-02-23T04:16:49.617Z,9.29
2023-02-23T04:19:19.426Z,9.23
2023-02-23T04:21:47.822Z,9.19
2023-02-23T04:24:15.872Z,8.84
2023-02-23T04:26:45.637Z,8.87
2023-02-23T04:29:14.419Z,8.93
2023-02-23T04:31:43.938Z,8.91
2023-02-23T04:34:12.261Z,9.07
2023-02-23T04:36:42.885Z,9.08
2023-02-23T04:39:10.900Z,9.07
2023-02-23T04:41:39.018Z,9.05
2023-02-23T04:44:07.414Z,8.94
2023-02-23T04:46:35.626Z,8.94
2023-02-23T04:49:03.938Z,8.92
2023-02-23T04:51:34.213Z,8.90
2023-02-23T04:54:04.220Z,8.85
2023-02-23T04:56:32.794Z,8.86
2023-02-23T04:59:01.623Z,8.85
2023-02-23T05:01:30.638Z,8.80
2023-02-23T05:03:59.058Z,8.76
2023-02-23T05:06:27.689Z,8.80
2023-02-23T05:08:56.097Z,8.82
2023-02-23T05:11:26.754Z,8.86
2023-02-23T05:13:55.095Z,8.79
2023-02-23T05:16:23.908Z,8.73
2023-02-23T05:18:52.327Z,8.75
2023-02-23T05:21:20.806Z,8.69
2023-02-23T05:23:49.430Z,8.68
2023-02-23T05:26:18.294Z,8.76
2023-02-23T05:28:48.105Z,8.85
2023-02-23T05:31:17.729Z,8.79
2023-02-23T05:33:46.607Z,8.86
2023-02-23T05:36:17.234Z,8.87
2023-02-23T05:38:46.514Z,8.88
2023-02-23T05:41:17.014Z,8.84
2023-02-23T05:43:47.618Z,8.78
2023-02-23T05:46:18.513Z,8.69
2023-02-23T05:48:47.655Z,8.78
2023-02-23T05:51:18.017Z,8.77
2023-02-23T05:53:46.873Z,8.73
2023-02-23T05:56:20.628Z,8.78
2023-02-23T05:58:51.419Z,8.73
2023-02-23T06:01:21.190Z,8.70
2023-02-23T06:03:50.181Z,8.77
2023-02-23T06:06:20.471Z,8.93
2023-02-23T06:08:48.765Z,8.90
2023-02-23T06:11:17.503Z,8.83
2023-02-23T06:13:46.264Z,8.87
2023-02-23T06:16:16.019Z,8.78
2023-02-23T06:18:44.246Z,8.83
2023-02-23T06:21:12.627Z,8.79
2023-02-23T06:23:40.710Z,8.76
2023-02-23T06:26:09.039Z,8.82
2023-02-23T06:28:37.427Z,8.79
2023-02-23T06:31:07.076Z,8.80
2023-02-23T06:33:37.448Z,8.80
2023-02-23T06:36:07.003Z,8.80
2023-02-23T06:38:35.660Z,8.70
2023-02-23T06:41:08.702Z,8.85
2023-02-23T06:43:36.933Z,8.84
2023-02-23T06:46:06.437Z,8.83
2023-02-23T06:48:35.748Z,8.96
2023-02-23T06:51:05.514Z,8.88
2023-02-23T06:53:33.788Z,8.80
2023-02-23T06:56:02.188Z,8.92
2023-02-23T06:58:30.738Z,8.86
2023-02-23T07:00:59.794Z,8.80
2023-02-23T07:03:27.946Z,8.79
2023-02-23T07:05:56.454Z,8.88
2023-02-23T07:08:26.451Z,8.89
2023-02-23T07:10:55.161Z,8.94
2023-02-23T07:13:23.554Z,8.99
2023-02-23T07:15:51.965Z,8.97
2023-02-23T07:18:20.467Z,9.10
2023-02-23T07:20:49.067Z,9.03
2023-02-23T07:23:17.391Z,9.04
2023-02-23T07:25:47.403Z,9.09
2023-02-23T07:28:15.651Z,9.06
2023-02-23T07:30:44.051Z,9.29
2023-02-23T07:33:12.192Z,9.20
2023-02-23T07:35:40.521Z,9.20
2023-02-23T07:38:08.581Z,9.21
2023-02-23T07:40:36.841Z,9.17
2023-02-23T07:43:06.793Z,9.29
2023-02-23T07:45:37.321Z,9.27
2023-02-23T07:48:05.681Z,9.28
2023-02-23T07:50:33.819Z,9.22
2023-02-23T07:53:02.204Z,9.26
2023-02-23T07:55:30.592Z,9.30
2023-02-23T07:57:59.303Z,9.28
2023-02-23T08:00:29.538Z,9.35
2023-02-23T08:02:57.991Z,9.36
2023-02-23T08:05:26.794Z,9.40
2023-02-23T08:07:55.021Z,9.37
2023-02-23T08:10:23.290Z,9.52
2023-02-23T08:12:51.504Z,9.48
2023-02-23T08:15:19.990Z,9.55
2023-02-23T08:17:49.908Z,9.66
2023-02-23T08:20:18.473Z,9.60
2023-02-23T08:22:49.767Z,9.60
2023-02-23T08:25:18.779Z,9.67
2023-02-23T08:27:48.104Z,9.78
2023-02-23T08:30:17.336Z,9.75
2023-02-23T08:32:45.698Z,9.66
2023-02-23T08:35:16.451Z,9.83
2023-02-23T08:37:45.569Z,9.84
2023-02-23T08:40:15.652Z,9.86
2023-02-23T08:42:44.126Z,9.83
2023-02-23T08:45:14.685Z,9.79
2023-02-23T08:47:43.382Z,9.80
2023-02-23T08:50:13.776Z,9.84
2023-02-23T08:52:43.951Z,9.91
2023-02-23T08:55:14.192Z,9.90
2023-02-23T08:57:42.420Z,9.88
2023-02-23T09:00:14.505Z,10.00
2023-02-23T09:02:42.975Z,9.94
2023-02-23T09:05:11.932Z,10.02
2023-02-23T09:07:45.227Z,9.92
2023-02-23T09:10:16.417Z,9.94
2023-02-23T09:12:44.899Z,9.98
2023-02-23T09:15:13.952Z,9.98
2023-02-23T09:17:45.144Z,9.97
2023-02-23T09:20:16.106Z,9.90
2023-02-23T09:22:48.954Z,9.93
2023-02-23T09:25:19.549Z,9.92
2023-02-23T09:27:47.796Z,10.04
2023-02-23T09:30:18.040Z,10.04
2023-02-23T09:32:46.799Z,10.19
2023-02-23T09:35:18.086Z,10.15
2023-02-23T09:37:49.104Z,10.20
2023-02-23T09:40:23.493Z,10.16
2023-02-23T09:43:01.078Z,10.21
2023-02-23T09:45:38.779Z,10.19
2023-02-23T09:48:16.841Z,10.20
2023-02-23T09:50:49.149Z,10.24
2023-02-23T09:53:37.248Z,10.45
2023-02-23T09:56:13.894Z,9.80
2023-02-23T09:58:42.604Z,9.61
2023-02-23T10:01:35.534Z,9.96
2023-02-23T10:04:12.193Z,10.15
2023-02-23T10:06:44.854Z,9.81
2023-02-23T10:09:24.416Z,9.62
2023-02-23T10:12:01.126Z,9.58
2023-02-23T10:14:53.406Z,9.51
2023-02-23T10:17:31.082Z,9.51
2023-02-23T10:20:09.207Z,9.79
2023-02-23T10:22:39.002Z,9.91
2023-02-23T10:25:14.954Z,10.13
2023-02-23T10:27:46.863Z,10.24
2023-02-23T10:30:21.078Z,10.24
2023-02-23T10:32:55.485Z,10.35
2023-02-23T10:35:25.381Z,10.51
2023-02-23T10:37:55.954Z,10.49
2023-02-23T10:40:31.110Z,10.58
2023-02-23T10:43:01.342Z,10.65
2023-02-23T10:45:32.403Z,11.01
2023-02-23T10:48:05.535Z,11.03
2023-02-23T10:50:35.721Z,11.06
2023-02-23T10:53:16.627Z,11.21
2023-02-23T10:55:49.048Z,11.35
2023-02-23T10:58:19.180Z,11.48
2023-02-23T11:00:55.927Z,11.57
2023-02-23T11:03:28.810Z,11.35
2023-02-23T11:05:58.572Z,11.24
2023-02-23T11:08:30.819Z,11.27
2023-02-23T11:11:29.004Z,10.76
2023-02-23T11:13:59.014Z,10.96
2023-02-23T11:16:31.027Z,11.17
2023-02-23T11:19:01.892Z,10.73
2023-02-23T11:21:33.884Z,10.73
2023-02-23T11:24:14.591Z,11.10
2023-02-23T11:26:46.019Z,11.34
2023-02-23T11:29:22.220Z,11.34
2023-02-23T11:31:53.945Z,11.31
2023-02-23T11:34:30.342Z,11.41
2023-02-23T11:37:05.787Z,11.29
2023-02-23T11:39:36.006Z,11.57
2023-02-23T11:42:19.559Z,12.10
2023-02-23T11:45:06.996Z,12.40
2023-02-23T11:47:41.326Z,12.01
2023-02-23T11:50:24.056Z,11.80
2023-02-23T11:52:57.087Z,11.95
2023-02-23T11:55:26.231Z,12.16
2023-02-23T11:58:10.334Z,11.89
2023-02-23T12:00:40.488Z,11.95
2023-02-23T12:03:09.123Z,12.21
2023-02-23T12:05:38.544Z,12.16
2023-02-23T12:08:15.308Z,12.55
2023-02-23T12:10:45.470Z,12.72
2023-02-23T12:13:27.177Z,12.36
2023-02-23T12:16:04.199Z,12.06
2023-02-23T12:18:43.195Z,12.45
2023-02-23T12:21:26.578Z,12.52
2023-02-23T12:24:07.256Z,12.00
2023-02-23T12:26:43.709Z,12.19
2023-02-23T12:29:30.579Z,12.50
2023-02-23T12:32:06.746Z,12.39
2023-02-23T12:34:44.393Z,12.34
2023-02-23T12:37:29.450Z,12.41
2023-02-23T12:40:04.322Z,12.24
2023-02-23T12:42:42.602Z,12.12
2023-02-23T12:45:22.478Z,12.05
2023-02-23T12:47:57.702Z,11.86
2023-02-23T12:50:30.581Z,11.89
2023-02-23T12:53:01.652Z,11.83
2023-02-23T12:55:38.571Z,11.74
2023-02-23T12:58:16.542Z,11.70
2023-02-23T13:00:54.291Z,11.61
2023-02-23T13:04:02.853Z,11.63
2023-02-23T13:06:38.241Z,11.66
2023-02-23T13:09:20.228Z,11.61
2023-02-23T13:12:02.247Z,11.61
2023-02-23T13:14:39.454Z,11.63
2023-02-23T13:17:22.764Z,11.60
2023-02-23T13:19:55.587Z,11.64
2023-02-23T13:22:33.850Z,11.56
2023-02-23T13:25:21.905Z,11.62
2023-02-23T13:27:54.223Z,11.56
2023-02-23T13:30:24.264Z,11.51
2023-02-23T13:32:55.815Z,11.42
2023-02-23T13:35:26.647Z,11.35
2023-02-23T13:37:59.850Z,11.35
2023-02-23T13:40:35.838Z,11.33
2023-02-23T13:43:17.872Z,11.32
2023-02-23T13:45:57.137Z,11.37
2023-02-23T13:48:41.818Z,11.35
2023-02-23T13:51:27.131Z,11.33
2023-02-23T13:54:02.604Z,11.40
2023-02-23T13:56:33.128Z,11.38
2023-02-23T13:59:03.507Z,11.48
2023-02-23T14:01:34.306Z,11.44
2023-02-23T14:04:08.236Z,11.45
2023-02-23T14:06:37.787Z,11.45
2023-02-23T14:09:11.495Z,11.46
2023-02-23T14:12:03.543Z,11.67
2023-02-23T14:14:44.472Z,11.66
2023-02-23T14:17:32.961Z,11.66
2023-02-23T14:20:24.386Z,11.73
2023-02-23T14:23:29.791Z,11.81
2023-02-23T14:26:19.772Z,11.88
2023-02-23T14:28:50.827Z,11.80
2023-02-23T14:31:26.092Z,11.87
2023-02-23T14:34:03.509Z,11.90
2023-02-23T14:36:48.114Z,12.22
2023-02-23T14:39:24.569Z,12.36
2023-02-23T14:41:56.183Z,12.60
2023-02-23T14:44:31.133Z,12.77
2023-02-23T14:47:04.343Z,12.64
2023-02-23T14:49:37.204Z,12.52
2023-02-23T14:52:15.769Z,12.48
2023-02-23T14:54:43.885Z,12.21
2023-02-23T14:57:19.917Z,12.17
2023-02-23T14:59:54.637Z,12.06
2023-02-23T15:02:25.544Z,11.88
2023-02-23T15:04:53.989Z,11.80
2023-02-23T15:07:32.339Z,11.87
2023-02-23T15:10:02.721Z,11.81
2023-02-23T15:12:36.075Z,11.82
2023-02-23T15:15:10.567Z,11.78
2023-02-23T15:17:42.066Z,11.84
2023-02-23T15:20:17.326Z,11.87
2023-02-23T15:22:50.221Z,11.85
2023-02-23T15:25:21.356Z,11.78
2023-02-23T15:27:52.057Z,11.80
2023-02-23T15:30:27.992Z,11.78
2023-02-23T15:33:04.001Z,11.72
2023-02-23T15:35:34.168Z,11.69
2023-02-23T15:38:18.063Z,11.44
2023-02-23T15:40:57.279Z,11.26
2023-02-23T15:43:25.914Z,11.15
2023-02-23T15:45:55.997Z,11.10
2023-02-23T15:48:30.420Z,11.01
2023-02-23T15:50:59.634Z,10.99
2023-02-23T15:53:36.093Z,10.96
2023-02-23T15:56:12.800Z,10.92
2023-02-23T15:58:55.969Z,10.84
2023-02-23T16:01:27.350Z,10.90
2023-02-23T16:04:03.236Z,10.90
2023-02-23T16:06:39.788Z,10.83
2023-02-23T16:09:22.179Z,10.74
2023-02-23T16:11:53.064Z,10.70
2023-02-23T16:14:23.987Z,10.67
2023-02-23T16:17:09.877Z,10.61
2023-02-23T16:19:41.916Z,10.61
2023-02-23T16:22:21.624Z,10.75
2023-02-23T16:25:02.220Z,10.70
2023-02-23T16:27:31.559Z,10.53
2023-02-23T16:30:06.949Z,10.52
2023-02-23T16:32:40.056Z,10.56
2023-02-23T16:35:17.307Z,10.51
2023-02-23T16:38:00.180Z,10.50
2023-02-23T16:40:33.361Z,10.49
2023-02-23T16:43:01.825Z,10.47
2023-02-23T16:45:30.774Z,10.50
2023-02-23T16:48:03.262Z,10.39
2023-02-23T16:50:33.851Z,10.38
2023-02-23T16:53:03.660Z,10.33
2023-02-23T16:55:40.106Z,10.31
2023-02-23T16:58:18.403Z,10.33
2023-02-23T17:00:52.002Z,10.28
2023-02-23T17:03:24.578Z,10.30
2023-02-23T17:05:53.641Z,10.29
2023-02-23T17:08:22.309Z,10.25
2023-02-23T17:10:54.835Z,10.28
2023-02-23T17:13:25.205Z,10.20
2023-02-23T17:15:56.548Z,10.16
2023-02-23T17:18:26.688Z,10.19
2023-02-23T17:20:57.246Z,10.20
2023-02-23T17:23:27.284Z,10.15
2023-02-23T17:25:58.700Z,10.24
2023-02-23T17:28:28.678Z,10.20
2023-02-23T17:30:59.537Z,10.16
2023-02-23T17:33:28.237Z,10.16
2023-02-23T17:35:56.449Z,10.22
2023-02-23T17:38:33.971Z,10.28
2023-02-23T17:41:05.231Z,10.31
2023-02-23T17:43:34.931Z,10.29
2023-02-23T17:46:03.338Z,10.27
2023-02-23T17:48:34.712Z,10.22
2023-02-23T17:51:04.961Z,10.25
2023-02-23T17:53:34.330Z,10.30
2023-02-23T17:56:04.244Z,10.19
2023-02-23T17:58:32.581Z,10.19
2023-02-23T18:01:03.100Z,10.28
2023-02-23T18:03:33.464Z,10.15
2023-02-23T18:06:03.273Z,10.19
2023-02-23T18:08:32.365Z,10.18
2023-02-23T18:11:01.363Z,10.16
2023-02-23T18:13:33.837Z,10.11
2023-02-23T18:16:04.638Z,10.12
2023-02-23T18:18:33.964Z,9.94
2023-02-23T18:21:03.117Z,9.85
2023-02-23T18:23:33.770Z,10.00
2023-02-23T18:26:07.617Z,10.00
2023-02-23T18:28:41.237Z,9.91
2023-02-23T18:31:09.775Z,9.85
2023-02-23T18:33:41.193Z,9.83
2023-02-23T18:36:17.896Z,9.95
2023-02-23T18:38:46.231Z,9.91
2023-02-23T18:41:14.534Z,9.88
2023-02-23T18:43:44.298Z,9.77
2023-02-23T18:46:13.923Z,9.81
2023-02-23T18:48:42.566Z,9.85
2023-02-23T18:51:14.779Z,9.79
2023-02-23T18:53:44.743Z,9.65
2023-02-23T18:56:15.127Z,9.54
2023-02-23T18:58:46.454Z,9.56
2023-02-23T19:01:20.889Z,9.56
2023-02-23T19:03:50.193Z,9.52
2023-02-23T19:06:18.786Z,9.61
2023-02-23T19:08:54.081Z,9.56
2023-02-23T19:11:24.908Z,9.50
2023-02-23T19:13:55.223Z,9.52
2023-02-23T19:16:26.598Z,9.42
2023-02-23T19:18:56.333Z,9.44
2023-02-23T19:21:24.658Z,9.38
2023-02-23T19:23:53.796Z,9.42
2023-02-23T19:26:22.956Z,9.38
2023-02-23T19:28:51.375Z,9.37
2023-02-23T19:31:23.405Z,9.39
2023-02-23T19:33:52.351Z,9.42
2023-02-23T19:36:23.624Z,9.25
2023-02-23T19:38:52.082Z,9.29
2023-02-23T19:41:22.077Z,9.30
2023-02-23T19:43:51.396Z,9.31
2023-02-23T19:46:23.121Z,9.38
2023-02-23T19:48:52.116Z,9.23
2023-02-23T19:51:21.171Z,9.20
2023-02-23T19:53:49.749Z,9.23
2023-02-23T19:56:18.727Z,9.28
2023-02-23T19:58:48.753Z,9.38
2023-02-23T20:01:19.228Z,9.24
2023-02-23T20:03:55.682Z,9.25
2023-02-23T20:06:26.209Z,9.36
2023-02-23T20:08:55.419Z,9.32
2023-02-23T20:11:24.362Z,9.34
2023-02-23T20:13:53.158Z,9.23
2023-02-23T20:16:29.891Z,9.31
2023-02-23T20:19:01.409Z,9.33
2023-02-23T20:21:32.654Z,9.40
2023-02-23T20:24:01.800Z,9.39
2023-02-23T20:26:34.626Z,9.31
2023-02-23T20:29:03.447Z,9.34
2023-02-23T20:31:36.264Z,9.31
2023-02-23T20:34:08.034Z,9.43
2023-02-23T20:36:38.511Z,9.36
2023-02-23T20:39:07.117Z,9.36
2023-02-23T20:41:35.848Z,9.28
2023-02-23T20:44:04.467Z,9.28
2023-02-23T20:46:32.895Z,9.25
2023-02-23T20:49:03.736Z,9.35
2023-02-23T20:51:37.540Z,9.28
2023-02-23T20:54:06.541Z,9.32
2023-02-23T20:56:35.568Z,9.32
2023-02-23T20:59:05.525Z,9.39
2023-02-23T21:01:34.405Z,9.27
2023-02-23T21:04:03.017Z,9.31
2023-02-23T21:06:34.793Z,9.34
2023-02-23T21:09:17.157Z,9.22
2023-02-23T21:11:46.532Z,9.12
2023-02-23T21:14:14.748Z,9.25
2023-02-23T21:16:45.484Z,9.23
2023-02-23T21:19:14.520Z,9.21
2023-02-23T21:21:47.156Z,9.34
2023-02-23T21:24:17.778Z,9.25
2023-02-23T21:26:46.710Z,9.22
2023-02-23T21:29:17.119Z,9.07
2023-02-23T21:31:46.502Z,9.09
2023-02-23T21:34:15.738Z,9.25
2023-02-23T21:36:45.538Z,9.26
2023-02-23T21:39:14.268Z,9.19
2023-02-23T21:41:42.719Z,9.09
2023-02-23T21:44:11.116Z,9.14
2023-02-23T21:46:40.606Z,9.10
2023-02-23T21:49:10.016Z,9.06
2023-02-23T21:51:38.741Z,9.10
2023-02-23T21:54:08.904Z,9.11
2023-02-23T21:56:37.717Z,9.00
2023-02-23T21:59:09.521Z,9.07
2023-02-23T22:01:40.938Z,9.11
2023-02-23T22:04:12.987Z,9.09
2023-02-23T22:06:43.382Z,9.06
2023-02-23T22:09:15.993Z,9.17
2023-02-23T22:11:47.923Z,9.17
2023-02-23T22:14:18.180Z,9.16
2023-02-23T22:16:47.870Z,9.14
2023-02-23T22:19:16.843Z,9.21
2023-02-23T22:21:48.042Z,9.15
2023-02-23T22:24:19.041Z,9.00
2023-02-23T22:26:54.032Z,9.11
2023-02-23T22:29:23.514Z,9.04
2023-02-23T22:31:53.195Z,9.00
2023-02-23T22:34:22.272Z,8.98
2023-02-23T22:36:50.677Z,9.00
2023-02-23T22:39:20.446Z,8.96
2023-02-23T22:41:48.881Z,8.84
2023-02-23T22:44:21.472Z,8.89
2023-02-23T22:46:50.125Z,8.82
2023-02-23T22:49:20.311Z,8.85
2023-02-23T22:51:50.607Z,8.81
2023-02-23T22:54:21.335Z,8.76
2023-02-23T22:56:49.729Z,8.69
2023-02-23T22:59:20.768Z,8.72
2023-02-23T23:01:50.527Z,8.60
2023-02-23T23:04:22.128Z,8.60
2023-02-23T23:06:51.061Z,8.62
2023-02-23T23:09:21.381Z,8.71
2023-02-23T23:11:51.570Z,8.66
2023-02-23T23:14:20.753Z,8.63
2023-02-23T23:16:49.922Z,8.59
2023-02-23T23:19:24.356Z,8.70
2023-02-23T23:21:55.471Z,8.59
2023-02-23T23:24:26.625Z,8.68
2023-02-23T23:26:59.572Z,8.57
2023-02-23T23:29:29.844Z,8.51
2023-02-23T23:31:58.370Z,8.58
2023-02-23T23:34:28.242Z,8.56
2023-02-23T23:36:56.964Z,8.48
2023-02-23T23:39:29.508Z,8.52
2023-02-23T23:41:57.731Z,8.53
2023-02-23T23:44:29.664Z,8.52
2023-02-23T23:46:59.801Z,8.54
2023-02-23T23:49:29.798Z,8.47
2023-02-23T23:51:59.185Z,8.52
2023-02-23T23:54:34.108Z,8.49
2023-02-23T23:57:03.055Z,8.51
2023-02-23T23:59:31.995Z,8.31
